createdAt,value
2019-02-08T00:00:26.788Z,961.99
2019-02-08T00:01:36.759Z,962.04
2019-02-08T00:02:46.729Z,961.98
2019-02-08T00:03:56.430Z,961.95
2019-02-08T00:05:06.387Z,961.93
2019-02-08T00:06:16.339Z,961.9
2019-02-08T00:07:26.506Z,961.87
2019-02-08T00:08:36.484Z,961.82
2019-02-08T00:09:46.424Z,961.79
2019-02-08T00:10:56.396Z,961.77
2019-02-08T00:12:06.383Z,961.76
2019-02-08T00:13:16.455Z,961.79
2019-02-08T00:14:26.411Z,961.78
2019-02-08T00:15:36.117Z,961.81
2019-02-08T00:16:46.099Z,961.81
2019-02-08T00:17:56.072Z,961.78
2019-02-08T00:19:06.108Z,961.8
2019-02-08T00:20:16.062Z,961.77
2019-02-08T00:21:26.041Z,961.76
2019-02-08T00:22:36.014Z,961.81
2019-02-08T00:23:45.707Z,961.77
2019-02-08T00:24:55.752Z,961.78
2019-02-08T00:26:05.767Z,961.77
2019-02-08T00:27:15.790Z,961.72
2019-02-08T00:28:25.727Z,961.7
2019-02-08T00:29:35.698Z,961.7
2019-02-08T00:30:45.756Z,961.72
2019-02-08T00:31:55.722Z,961.74
2019-02-08T00:33:05.691Z,961.7
2019-02-08T00:34:15.647Z,961.74
2019-02-08T00:35:25.603Z,961.71
2019-02-08T00:36:35.646Z,961.65
2019-02-08T00:37:45.588Z,961.61
2019-02-08T00:38:55.556Z,961.59
2019-02-08T00:40:05.501Z,961.57
2019-02-08T00:41:15.195Z,961.59
2019-02-08T00:42:25.134Z,961.53
2019-02-08T00:43:35.072Z,961.51
2019-02-08T00:44:45.016Z,961.56
2019-02-08T00:45:54.965Z,961.52
2019-02-08T00:47:04.930Z,961.48
2019-02-08T00:48:14.861Z,961.45
2019-02-08T00:49:24.556Z,961.44
2019-02-08T00:50:34.484Z,961.46
2019-02-08T00:51:44.417Z,961.44
2019-02-08T00:52:54.367Z,961.48
2019-02-08T00:54:04.329Z,961.44
2019-02-08T00:55:14.321Z,961.45
2019-02-08T00:56:24.268Z,961.45
2019-02-08T00:57:33.947Z,961.47
2019-02-08T00:58:43.909Z,961.44
2019-02-08T00:59:53.692Z,961.44
2019-02-08T01:01:03.914Z,961.44
2019-02-08T01:02:13.958Z,961.43
2019-02-08T01:03:24.233Z,961.34
2019-02-08T01:04:34.587Z,961.41
2019-02-08T01:05:45.311Z,961.32
2019-02-08T01:06:55.928Z,961.33
2019-02-08T01:08:06.661Z,961.33
2019-02-08T01:09:17.370Z,961.29
2019-02-08T01:10:27.962Z,961.31
2019-02-08T01:11:38.788Z,961.33
2019-02-08T01:12:49.300Z,961.3
2019-02-08T01:13:59.972Z,961.31
2019-02-08T01:15:10.073Z,961.29
2019-02-08T01:16:20.282Z,961.23
2019-02-08T01:17:30.375Z,961.28
2019-02-08T01:18:40.351Z,961.26
2019-02-08T01:19:50.289Z,961.22
2019-02-08T01:21:00.227Z,961.18
2019-02-08T01:22:10.177Z,961.18
2019-02-08T01:23:20.158Z,961.17
2019-02-08T01:24:30.110Z,961.17
2019-02-08T01:25:40.029Z,961.15
2019-02-08T01:26:49.946Z,961.15
2019-02-08T01:27:59.860Z,961.13
2019-02-08T01:29:09.875Z,961.12
2019-02-08T01:30:19.807Z,961.16
2019-02-08T01:31:29.753Z,961.12
2019-02-08T01:32:39.674Z,961.13
2019-02-08T01:33:49.590Z,961.13
2019-02-08T01:34:59.352Z,961.12
2019-02-08T01:36:09.279Z,961.15
2019-02-08T01:37:19.196Z,961.13
2019-02-08T01:38:29.108Z,961.09
2019-02-08T01:39:39.017Z,961.07
2019-02-08T01:40:48.998Z,961.06
2019-02-08T01:41:58.910Z,961.03
2019-02-08T01:43:08.847Z,960.97
2019-02-08T01:44:18.764Z,961.01
2019-02-08T01:45:28.452Z,960.96
2019-02-08T01:46:38.466Z,960.97
2019-02-08T01:47:48.384Z,960.91
2019-02-08T01:48:58.331Z,960.94
2019-02-08T01:50:08.247Z,960.95
2019-02-08T01:51:18.158Z,960.99
2019-02-08T01:52:28.175Z,960.97
2019-02-08T01:53:38.085Z,960.95
2019-02-08T01:54:53.849Z,960.92
2019-02-08T01:56:03.762Z,960.88
2019-02-08T01:57:13.671Z,960.87
2019-02-08T01:58:23.580Z,960.8
2019-02-08T01:59:33.514Z,960.8
2019-02-08T02:00:43.432Z,960.83
2019-02-08T02:01:53.344Z,960.82
2019-02-08T02:03:03.260Z,960.86
2019-02-08T02:04:13.274Z,960.85
2019-02-08T02:05:23.186Z,960.84
2019-02-08T02:06:33.112Z,960.83
2019-02-08T02:07:43.026Z,960.81
2019-02-08T02:08:52.935Z,960.83
2019-02-08T02:10:02.857Z,960.81
2019-02-08T02:11:12.775Z,960.8
2019-02-08T02:12:22.687Z,960.76
2019-02-08T02:13:32.596Z,960.77
2019-02-08T02:14:42.511Z,960.79
2019-02-08T02:15:52.518Z,960.79
2019-02-08T02:17:02.439Z,960.74
2019-02-08T02:18:12.361Z,960.72
2019-02-08T02:19:22.281Z,960.73
2019-02-08T02:20:32.195Z,960.71
2019-02-08T02:21:42.113Z,960.66
2019-02-08T02:22:52.031Z,960.68
2019-02-08T02:24:01.996Z,960.69
2019-02-08T02:25:11.685Z,960.67
2019-02-08T02:26:21.602Z,960.61
2019-02-08T02:27:31.513Z,960.64
2019-02-08T02:28:41.446Z,960.58
2019-02-08T02:29:51.109Z,960.55
2019-02-08T02:31:01.041Z,960.49
2019-02-08T02:32:10.962Z,960.52
2019-02-08T02:33:20.903Z,960.47
2019-02-08T02:34:30.575Z,960.5
2019-02-08T02:35:40.507Z,960.5
2019-02-08T02:36:50.219Z,960.49
2019-02-08T02:38:00.158Z,960.51
2019-02-08T02:39:10.204Z,960.51
2019-02-08T02:40:20.129Z,960.45
2019-02-08T02:41:29.818Z,960.5
2019-02-08T02:42:39.746Z,960.5
2019-02-08T02:43:49.708Z,960.49
2019-02-08T02:44:59.721Z,960.49
2019-02-08T02:46:09.695Z,960.47
2019-02-08T02:47:19.666Z,960.4
2019-02-08T02:48:29.629Z,960.38
2019-02-08T02:49:39.567Z,960.37
2019-02-08T02:50:49.481Z,960.34
2019-02-08T02:51:59.394Z,960.32
2019-02-08T02:53:09.313Z,960.29
2019-02-08T02:54:19.274Z,960.3
2019-02-08T02:55:29.196Z,960.32
2019-02-08T02:56:39.125Z,960.36
2019-02-08T02:57:49.046Z,960.31
2019-02-08T02:58:58.988Z,960.32
2019-02-08T03:00:08.927Z,960.26
2019-02-08T03:01:18.852Z,960.19
2019-02-08T03:02:28.863Z,960.22
2019-02-08T03:03:38.540Z,960.19
2019-02-08T03:04:48.455Z,960.18
2019-02-08T03:05:58.370Z,960.2
2019-02-08T03:07:08.310Z,960.2
2019-02-08T03:08:18.045Z,960.22
2019-02-08T03:09:27.954Z,960.22
2019-02-08T03:10:37.878Z,960.23
2019-02-08T03:11:47.829Z,960.27
2019-02-08T03:12:57.513Z,960.3
2019-02-08T03:14:07.532Z,960.27
2019-02-08T03:15:17.443Z,960.23
2019-02-08T03:16:27.366Z,960.27
2019-02-08T03:17:37.280Z,960.24
2019-02-08T03:18:47.210Z,960.26
2019-02-08T03:19:57.137Z,960.32
2019-02-08T03:21:07.050Z,960.36
2019-02-08T03:22:16.732Z,960.34
2019-02-08T03:23:26.661Z,960.34
2019-02-08T03:24:36.582Z,960.38
2019-02-08T03:25:46.511Z,960.31
2019-02-08T03:26:56.452Z,960.32
2019-02-08T03:28:06.428Z,960.31
2019-02-08T03:29:16.344Z,960.34
2019-02-08T03:30:26.309Z,960.39
2019-02-08T03:31:36.375Z,960.32
2019-02-08T03:32:46.334Z,960.36
2019-02-08T03:33:56.279Z,960.36
2019-02-08T03:35:06.194Z,960.41
2019-02-08T03:36:16.114Z,960.38
2019-02-08T03:37:26.087Z,960.35
2019-02-08T03:38:35.760Z,960.34
2019-02-08T03:39:45.441Z,960.34
2019-02-08T03:40:55.352Z,960.31
2019-02-08T03:42:05.269Z,960.35
2019-02-08T03:43:15.292Z,960.37
2019-02-08T03:44:25.204Z,960.37
2019-02-08T03:45:35.135Z,960.39
2019-02-08T03:46:45.055Z,960.4
2019-02-08T03:47:54.977Z,960.43
2019-02-08T03:49:04.891Z,960.43
2019-02-08T03:50:14.817Z,960.44
2019-02-08T03:51:24.736Z,960.47
2019-02-08T03:52:34.649Z,960.45
2019-02-08T03:53:44.589Z,960.45
2019-02-08T03:54:54.511Z,960.47
2019-02-08T03:56:04.422Z,960.43
2019-02-08T03:57:14.339Z,960.35
2019-02-08T03:58:24.250Z,960.37
2019-02-08T03:59:34.166Z,960.36
2019-02-08T04:00:44.125Z,960.28
2019-02-08T04:01:54.062Z,960.34
2019-02-08T04:03:03.981Z,960.3
2019-02-08T04:04:13.902Z,960.37
2019-02-08T04:05:23.824Z,960.35
2019-02-08T04:06:33.838Z,960.29
2019-02-08T04:07:43.758Z,960.3
2019-02-08T04:08:53.680Z,960.38
2019-02-08T04:10:03.600Z,960.35
2019-02-08T04:11:13.524Z,960.36
2019-02-08T04:12:23.489Z,960.35
2019-02-08T04:13:33.397Z,960.42
2019-02-08T04:14:43.344Z,960.42
2019-02-08T04:15:53.262Z,960.44
2019-02-08T04:17:03.180Z,960.45
2019-02-08T04:18:13.144Z,960.39
2019-02-08T04:19:23.087Z,960.38
2019-02-08T04:20:33.019Z,960.35
2019-02-08T04:21:42.933Z,960.41
2019-02-08T04:22:52.869Z,960.41
2019-02-08T04:24:02.782Z,960.43
2019-02-08T04:25:12.696Z,960.41
2019-02-08T04:26:22.379Z,960.38
2019-02-08T04:27:32.306Z,960.44
2019-02-08T04:28:42.236Z,960.48
2019-02-08T04:29:52.253Z,960.51
2019-02-08T04:31:02.234Z,960.53
2019-02-08T04:32:12.153Z,960.54
2019-02-08T04:33:22.073Z,960.51
2019-02-08T04:34:31.997Z,960.47
2019-02-08T04:35:42.011Z,960.43
2019-02-08T04:36:51.933Z,960.39
2019-02-08T04:38:01.845Z,960.35
2019-02-08T04:39:11.759Z,960.39
2019-02-08T04:40:21.680Z,960.39
2019-02-08T04:41:31.690Z,960.38
2019-02-08T04:42:41.606Z,960.42
2019-02-08T04:43:51.519Z,960.41
2019-02-08T04:45:01.192Z,960.34
2019-02-08T04:46:11.114Z,960.34
2019-02-08T04:47:21.073Z,960.37
2019-02-08T04:48:30.985Z,960.41
2019-02-08T04:49:40.906Z,960.4
2019-02-08T04:50:50.812Z,960.4
2019-02-08T04:52:00.745Z,960.41
2019-02-08T04:53:10.778Z,960.43
2019-02-08T04:54:20.686Z,960.48
2019-02-08T04:55:38.598Z,960.47
2019-02-08T04:56:48.516Z,960.46
2019-02-08T04:57:58.483Z,960.42
2019-02-08T04:59:08.505Z,960.36
2019-02-08T05:00:18.416Z,960.41
2019-02-08T05:01:28.330Z,960.38
2019-02-08T05:02:38.266Z,960.38
2019-02-08T05:03:48.183Z,960.41
2019-02-08T05:04:57.968Z,960.46
2019-02-08T05:06:07.908Z,960.44
2019-02-08T05:07:17.837Z,960.44
2019-02-08T05:08:27.747Z,960.4
2019-02-08T05:09:37.661Z,960.39
2019-02-08T05:10:47.850Z,960.42
2019-02-08T05:11:57.778Z,960.44
2019-02-08T05:13:07.703Z,960.44
2019-02-08T05:14:17.616Z,960.45
2019-02-08T05:15:27.533Z,960.42
2019-02-08T05:16:37.494Z,960.49
2019-02-08T05:17:47.416Z,960.47
2019-02-08T05:18:57.347Z,960.46
2019-02-08T05:20:07.263Z,960.47
2019-02-08T05:21:17.172Z,960.47
2019-02-08T05:22:27.130Z,960.47
2019-02-08T05:23:37.053Z,960.42
2019-02-08T05:24:46.967Z,960.46
2019-02-08T05:25:56.886Z,960.47
2019-02-08T05:27:06.799Z,960.49
2019-02-08T05:28:16.712Z,960.51
2019-02-08T05:29:26.628Z,960.49
2019-02-08T05:30:36.549Z,960.52
2019-02-08T05:31:46.460Z,960.48
2019-02-08T05:32:56.377Z,960.5
2019-02-08T05:34:06.479Z,960.48
2019-02-08T05:35:16.440Z,960.55
2019-02-08T05:36:26.393Z,960.55
2019-02-08T05:37:36.304Z,960.57
2019-02-08T05:38:46.215Z,960.61
2019-02-08T05:39:56.180Z,960.65
2019-02-08T05:41:06.090Z,960.66
2019-02-08T05:42:16.004Z,960.63
2019-02-08T05:43:25.927Z,960.57
2019-02-08T05:44:35.872Z,960.56
2019-02-08T05:45:45.893Z,960.58
2019-02-08T05:46:55.818Z,960.58
2019-02-08T05:48:05.759Z,960.59
2019-02-08T05:49:15.680Z,960.59
2019-02-08T05:50:25.595Z,960.56
2019-02-08T05:51:35.512Z,960.57
2019-02-08T05:52:45.461Z,960.62
2019-02-08T05:53:55.382Z,960.62
2019-02-08T05:55:05.312Z,960.66
2019-02-08T05:56:15.243Z,960.59
2019-02-08T05:57:25.260Z,960.6
2019-02-08T05:58:36.386Z,960.65
2019-02-08T05:59:46.311Z,960.65
2019-02-08T06:00:56.227Z,960.69
2019-02-08T06:02:06.166Z,960.7
2019-02-08T06:03:16.124Z,960.74
2019-02-08T06:04:26.054Z,960.69
2019-02-08T06:05:35.999Z,960.67
2019-02-08T06:06:45.926Z,960.61
2019-02-08T06:07:55.848Z,960.64
2019-02-08T06:09:05.876Z,960.69
2019-02-08T06:10:15.825Z,960.7
2019-02-08T06:11:25.744Z,960.67
2019-02-08T06:12:38.193Z,960.63
2019-02-08T06:13:48.200Z,960.66
2019-02-08T06:14:58.232Z,960.63
2019-02-08T06:16:08.176Z,960.68
2019-02-08T06:17:18.101Z,960.73
2019-02-08T06:18:28.027Z,960.73
2019-02-08T06:19:37.940Z,960.74
2019-02-08T06:20:47.952Z,960.72
2019-02-08T06:21:57.876Z,960.75
2019-02-08T06:23:07.787Z,960.73
2019-02-08T06:24:17.700Z,960.75
2019-02-08T06:25:27.665Z,960.74
2019-02-08T06:26:37.662Z,960.74
2019-02-08T06:27:47.575Z,960.68
2019-02-08T06:28:57.485Z,960.7
2019-02-08T06:30:07.409Z,960.76
2019-02-08T06:31:17.338Z,960.78
2019-02-08T06:32:27.402Z,960.72
2019-02-08T06:33:37.322Z,960.74
2019-02-08T06:34:47.238Z,960.73
2019-02-08T06:35:57.155Z,960.76
2019-02-08T06:37:07.081Z,960.81
2019-02-08T06:38:17.090Z,960.84
2019-02-08T06:39:27.004Z,960.8
2019-02-08T06:40:36.932Z,960.84
2019-02-08T06:41:46.860Z,960.82
2019-02-08T06:42:56.783Z,960.81
2019-02-08T06:44:06.766Z,960.79
2019-02-08T06:45:16.684Z,960.8
2019-02-08T06:46:26.606Z,960.8
2019-02-08T06:47:36.528Z,960.86
2019-02-08T06:48:46.451Z,960.87
2019-02-08T06:49:56.417Z,960.92
2019-02-08T06:51:06.330Z,960.93
2019-02-08T06:52:16.240Z,960.94
2019-02-08T06:53:26.145Z,960.93
2019-02-08T06:54:36.059Z,960.93
2019-02-08T06:55:46.025Z,960.96
2019-02-08T06:57:01.367Z,961
2019-02-08T06:58:11.289Z,960.98
2019-02-08T06:59:22.408Z,961.01
2019-02-08T07:00:32.320Z,961.02
2019-02-08T07:01:42.351Z,961.04
2019-02-08T07:02:52.284Z,961.03
2019-02-08T07:04:02.216Z,961.07
2019-02-08T07:05:12.127Z,961.09
2019-02-08T07:06:22.038Z,961.12
2019-02-08T07:07:32.046Z,961.16
2019-02-08T07:08:41.974Z,961.2
2019-02-08T07:09:51.636Z,961.17
2019-02-08T07:11:01.044Z,961.19
2019-02-08T07:12:10.955Z,961.24
2019-02-08T07:13:20.919Z,961.2
2019-02-08T07:14:30.828Z,961.22
2019-02-08T07:15:40.737Z,961.21
2019-02-08T07:16:50.650Z,961.23
2019-02-08T07:18:00.572Z,961.25
2019-02-08T07:19:10.489Z,961.26
2019-02-08T07:20:20.400Z,961.35
2019-02-08T07:21:30.313Z,961.32
2019-02-08T07:22:39.978Z,961.35
2019-02-08T07:23:49.893Z,961.39
2019-02-08T07:24:59.663Z,961.39
2019-02-08T07:26:09.607Z,961.4
2019-02-08T07:27:19.519Z,961.38
2019-02-08T07:28:30.019Z,961.35
2019-02-08T07:29:39.950Z,961.34
2019-02-08T07:30:49.866Z,961.38
2019-02-08T07:31:59.773Z,961.36
2019-02-08T07:33:09.796Z,961.31
2019-02-08T07:34:19.709Z,961.28
2019-02-08T07:35:29.622Z,961.28
2019-02-08T07:36:39.640Z,961.31
2019-02-08T07:37:49.549Z,961.33
2019-02-08T07:39:00.681Z,961.34
2019-02-08T07:40:10.595Z,961.31
2019-02-08T07:41:20.505Z,961.31
2019-02-08T07:42:30.488Z,961.39
2019-02-08T07:43:40.397Z,961.42
2019-02-08T07:44:50.304Z,961.48
2019-02-08T07:46:00.219Z,961.54
2019-02-08T07:47:10.130Z,961.55
2019-02-08T07:48:20.139Z,961.54
2019-02-08T07:49:30.141Z,961.55
2019-02-08T07:50:40.048Z,961.56
2019-02-08T07:51:49.954Z,961.56
2019-02-08T07:52:59.891Z,961.55
2019-02-08T07:54:09.895Z,961.54
2019-02-08T07:55:25.883Z,961.57
2019-02-08T07:56:36.035Z,961.52
2019-02-08T07:57:45.944Z,961.53
2019-02-08T07:58:55.858Z,961.61
2019-02-08T08:00:05.777Z,961.68
2019-02-08T08:01:15.690Z,961.8
2019-02-08T08:02:25.597Z,961.78
2019-02-08T08:03:35.255Z,961.72
2019-02-08T08:04:45.163Z,961.72
2019-02-08T08:05:55.173Z,961.69
2019-02-08T08:07:05.089Z,961.71
2019-02-08T08:08:15.007Z,961.75
2019-02-08T08:09:24.921Z,961.76
2019-02-08T08:10:34.837Z,961.77
2019-02-08T08:11:44.849Z,961.78
2019-02-08T08:12:54.812Z,961.81
2019-02-08T08:14:04.723Z,961.82
2019-02-08T08:15:14.631Z,961.85
2019-02-08T08:16:24.541Z,961.86
2019-02-08T08:17:34.505Z,961.94
2019-02-08T08:18:44.423Z,961.93
2019-02-08T08:19:54.339Z,961.9
2019-02-08T08:21:04.257Z,961.94
2019-02-08T08:22:14.171Z,961.95
2019-02-08T08:23:24.191Z,961.98
2019-02-08T08:24:34.101Z,961.97
2019-02-08T08:25:44.017Z,962.02
2019-02-08T08:26:53.928Z,961.99
2019-02-08T08:28:03.840Z,962.02
2019-02-08T08:29:13.850Z,962.06
2019-02-08T08:30:23.765Z,962.09
2019-02-08T08:31:33.429Z,962.11
2019-02-08T08:32:43.341Z,962.12
2019-02-08T08:33:53.264Z,962.1
2019-02-08T08:35:03.235Z,962.05
2019-02-08T08:36:13.185Z,962.09
2019-02-08T08:37:24.684Z,962.12
2019-02-08T08:38:34.729Z,962.13
2019-02-08T08:39:44.652Z,962.13
2019-02-08T08:40:54.414Z,962.1
2019-02-08T08:42:04.360Z,962.15
2019-02-08T08:43:15.226Z,962.17
2019-02-08T08:44:24.987Z,962.2
2019-02-08T08:45:34.901Z,962.22
2019-02-08T08:46:44.908Z,962.27
2019-02-08T08:47:54.821Z,962.28
2019-02-08T08:49:04.735Z,962.35
2019-02-08T08:50:14.641Z,962.34
2019-02-08T08:51:24.563Z,962.32
2019-02-08T08:52:34.581Z,962.36
2019-02-08T08:53:44.488Z,962.38
2019-02-08T08:54:54.421Z,962.39
2019-02-08T08:56:04.343Z,962.52
2019-02-08T08:57:14.263Z,962.5
2019-02-08T08:58:24.274Z,962.49
2019-02-08T08:59:34.196Z,962.49
2019-02-08T09:00:44.111Z,962.48
2019-02-08T09:01:54.030Z,962.54
2019-02-08T09:03:03.949Z,962.43
2019-02-08T09:04:13.858Z,962.39
2019-02-08T09:05:23.807Z,962.43
2019-02-08T09:06:33.735Z,962.44
2019-02-08T09:07:43.651Z,962.43
2019-02-08T09:08:53.586Z,962.4
2019-02-08T09:10:03.350Z,962.43
2019-02-08T09:11:13.710Z,962.44
2019-02-08T09:12:23.633Z,962.46
2019-02-08T09:13:33.563Z,962.48
2019-02-08T09:14:43.484Z,962.53
2019-02-08T09:15:53.498Z,962.55
2019-02-08T09:17:03.418Z,962.58
2019-02-08T09:18:13.338Z,962.63
2019-02-08T09:19:23.007Z,962.62
2019-02-08T09:20:32.922Z,962.58
2019-02-08T09:21:44.298Z,962.54
2019-02-08T09:22:54.225Z,962.61
2019-02-08T09:24:04.143Z,962.58
2019-02-08T09:25:14.057Z,962.57
2019-02-08T09:26:23.973Z,962.6
2019-02-08T09:27:33.983Z,962.62
2019-02-08T09:28:43.894Z,962.61
2019-02-08T09:29:53.813Z,962.61
2019-02-08T09:31:03.728Z,962.59
2019-02-08T09:32:13.652Z,962.66
2019-02-08T09:33:23.670Z,962.64
2019-02-08T09:34:33.588Z,962.74
2019-02-08T09:35:43.502Z,962.68
2019-02-08T09:36:53.421Z,962.67
2019-02-08T09:38:03.332Z,962.71
2019-02-08T09:39:13.307Z,962.66
2019-02-08T09:40:23.217Z,962.69
2019-02-08T09:41:33.133Z,962.69
2019-02-08T09:42:43.047Z,962.69
2019-02-08T09:43:52.961Z,962.73
2019-02-08T09:45:02.979Z,962.74
2019-02-08T09:46:12.635Z,962.75
2019-02-08T09:47:22.296Z,962.73
2019-02-08T09:48:32.207Z,962.75
2019-02-08T09:49:42.117Z,962.78
2019-02-08T09:50:52.069Z,962.85
2019-02-08T09:52:01.979Z,962.79
2019-02-08T09:53:11.892Z,962.81
2019-02-08T09:54:21.806Z,962.82
2019-02-08T09:55:31.716Z,962.89
2019-02-08T09:56:41.731Z,962.95
2019-02-08T09:57:51.637Z,962.95
2019-02-08T09:59:01.548Z,962.97
2019-02-08T10:00:11.464Z,962.97
2019-02-08T10:01:21.380Z,962.96
2019-02-08T10:02:31.396Z,962.99
2019-02-08T10:03:42.607Z,962.92
2019-02-08T10:04:52.525Z,963.04
2019-02-08T10:06:02.461Z,963.02
2019-02-08T10:07:12.380Z,963.05
2019-02-08T10:08:22.425Z,963.11
2019-02-08T10:09:32.337Z,963.17
2019-02-08T10:10:42.259Z,963.15
2019-02-08T10:11:52.180Z,963.23
2019-02-08T10:13:02.093Z,963.24
2019-02-08T10:14:12.002Z,963.28
2019-02-08T10:15:21.924Z,963.35
2019-02-08T10:16:31.872Z,963.31
2019-02-08T10:17:41.780Z,963.34
2019-02-08T10:18:51.694Z,963.28
2019-02-08T10:20:01.654Z,963.35
2019-02-08T10:21:11.566Z,963.36
2019-02-08T10:22:21.521Z,963.49
2019-02-08T10:23:31.434Z,963.52
2019-02-08T10:24:41.345Z,963.59
2019-02-08T10:25:51.364Z,963.59
2019-02-08T10:27:08.211Z,963.56
2019-02-08T10:28:18.128Z,963.53
2019-02-08T10:29:28.044Z,963.51
2019-02-08T10:30:37.712Z,963.53
2019-02-08T10:31:47.723Z,963.5
2019-02-08T10:32:57.643Z,963.48
2019-02-08T10:34:07.581Z,963.52
2019-02-08T10:35:17.494Z,963.51
2019-02-08T10:36:27.411Z,963.59
2019-02-08T10:37:37.423Z,963.56
2019-02-08T10:38:47.341Z,963.54
2019-02-08T10:39:57.794Z,963.54
2019-02-08T10:41:07.823Z,963.55
2019-02-08T10:42:17.738Z,963.57
2019-02-08T10:43:27.402Z,963.59
2019-02-08T10:44:37.314Z,963.57
2019-02-08T10:45:47.225Z,963.6
2019-02-08T10:46:57.133Z,963.63
2019-02-08T10:48:07.060Z,963.63
2019-02-08T10:49:17.072Z,963.61
2019-02-08T10:50:26.989Z,963.62
2019-02-08T10:51:36.904Z,963.66
2019-02-08T10:52:46.830Z,963.66
2019-02-08T10:53:56.752Z,963.64
2019-02-08T10:55:06.786Z,963.67
2019-02-08T10:56:16.703Z,963.68
2019-02-08T10:57:26.617Z,963.69
2019-02-08T10:58:36.531Z,963.7
2019-02-08T10:59:46.449Z,963.74
2019-02-08T11:00:56.369Z,963.73
2019-02-08T11:02:06.299Z,963.8
2019-02-08T11:03:16.213Z,963.78
2019-02-08T11:04:26.126Z,963.77
2019-02-08T11:05:36.056Z,963.77
2019-02-08T11:06:46.080Z,963.78
2019-02-08T11:07:55.995Z,963.85
2019-02-08T11:09:05.714Z,963.88
2019-02-08T11:10:15.632Z,963.93
2019-02-08T11:11:25.303Z,963.91
2019-02-08T11:12:35.220Z,963.92
2019-02-08T11:13:45.282Z,963.91
2019-02-08T11:14:55.413Z,963.9
2019-02-08T11:16:05.410Z,963.92
2019-02-08T11:17:15.330Z,964.03
2019-02-08T11:18:25.362Z,964.01
2019-02-08T11:19:35.287Z,963.9
2019-02-08T11:20:45.224Z,963.89
2019-02-08T11:21:55.147Z,963.85
2019-02-08T11:23:05.066Z,963.91
2019-02-08T11:24:15.127Z,963.91
2019-02-08T11:25:25.062Z,963.94
2019-02-08T11:26:34.980Z,963.95
2019-02-08T11:27:44.898Z,964
2019-02-08T11:28:54.577Z,963.96
2019-02-08T11:30:04.551Z,963.97
2019-02-08T11:31:14.472Z,964.01
2019-02-08T11:32:24.396Z,964.05
2019-02-08T11:33:50.417Z,964.02
2019-02-08T11:35:00.342Z,964.02
2019-02-08T11:36:10.319Z,964.06
2019-02-08T11:37:20.255Z,963.97
2019-02-08T11:38:30.173Z,963.94
2019-02-08T11:39:40.095Z,963.95
2019-02-08T11:40:50.122Z,963.98
2019-02-08T11:42:00.046Z,964.01
2019-02-08T11:43:09.972Z,964.03
2019-02-08T11:44:19.901Z,964
2019-02-08T11:45:29.828Z,964.03
2019-02-08T11:46:39.652Z,964.01
2019-02-08T11:47:49.576Z,964.02
2019-02-08T11:48:59.510Z,964.02
2019-02-08T11:50:09.443Z,964.04
2019-02-08T11:51:19.364Z,964.11
2019-02-08T11:52:29.389Z,964.05
2019-02-08T11:53:39.311Z,964.06
2019-02-08T11:54:49.382Z,964.04
2019-02-08T11:55:59.402Z,964.07
2019-02-08T11:57:09.337Z,964.09
2019-02-08T11:58:19.311Z,964.06
2019-02-08T11:59:29.244Z,964.09
2019-02-08T12:00:39.167Z,964.05
2019-02-08T12:01:49.096Z,964.02
2019-02-08T12:02:59.082Z,964.01
2019-02-08T12:04:09.937Z,964.02
2019-02-08T12:05:19.861Z,964.08
2019-02-08T12:06:29.530Z,964.05
2019-02-08T12:07:39.471Z,964.07
2019-02-08T12:08:49.407Z,964.11
2019-02-08T12:09:59.433Z,964.09
2019-02-08T12:11:09.368Z,964.11
2019-02-08T12:12:19.307Z,964.17
2019-02-08T12:13:29.231Z,964.18
2019-02-08T12:14:39.161Z,964.21
2019-02-08T12:15:49.185Z,964.31
2019-02-08T12:16:59.114Z,964.28
2019-02-08T12:18:08.794Z,964.23
2019-02-08T12:19:19.183Z,964.18
2019-02-08T12:20:29.114Z,964.22
2019-02-08T12:21:39.097Z,964.38
2019-02-08T12:22:49.046Z,964.39
2019-02-08T12:23:58.973Z,964.36
2019-02-08T12:25:08.908Z,964.38
2019-02-08T12:26:18.845Z,964.38
2019-02-08T12:27:28.878Z,964.33
2019-02-08T12:28:38.806Z,964.36
2019-02-08T12:29:48.740Z,964.45
2019-02-08T12:30:58.678Z,964.46
2019-02-08T12:32:08.619Z,964.45
2019-02-08T12:33:18.659Z,964.43
2019-02-08T12:34:28.646Z,964.43
2019-02-08T12:35:38.576Z,964.44
2019-02-08T12:36:48.535Z,964.48
2019-02-08T12:37:58.462Z,964.53
2019-02-08T12:39:08.449Z,964.52
2019-02-08T12:40:18.377Z,964.5
2019-02-08T12:41:28.306Z,964.53
2019-02-08T12:42:38.236Z,964.49
2019-02-08T12:43:48.163Z,964.44
2019-02-08T12:44:58.141Z,964.44
2019-02-08T12:46:08.135Z,964.51
2019-02-08T12:47:18.064Z,964.47
2019-02-08T12:48:27.745Z,964.43
2019-02-08T12:49:39.300Z,964.36
2019-02-08T12:50:49.345Z,964.39
2019-02-08T12:51:59.363Z,964.38
2019-02-08T12:53:09.378Z,964.43
2019-02-08T12:54:19.316Z,964.49
2019-02-08T12:55:29.255Z,964.44
2019-02-08T12:56:45.313Z,964.43
2019-02-08T12:57:55.613Z,964.49
2019-02-08T12:59:05.552Z,964.47
2019-02-08T13:00:15.488Z,964.5
2019-02-08T13:01:25.430Z,964.56
2019-02-08T13:02:42.494Z,964.53
2019-02-08T13:03:52.423Z,964.54
2019-02-08T13:05:03.948Z,964.52
2019-02-08T13:06:13.878Z,964.55
2019-02-08T13:07:23.904Z,964.48
2019-02-08T13:08:33.834Z,964.55
2019-02-08T13:09:43.762Z,964.53
2019-02-08T13:10:53.698Z,964.5
2019-02-08T13:12:03.667Z,964.48
2019-02-08T13:13:15.055Z,964.5
2019-02-08T13:14:24.738Z,964.54
2019-02-08T13:15:34.668Z,964.53
2019-02-08T13:16:44.593Z,964.49
2019-02-08T13:17:54.521Z,964.48
2019-02-08T13:19:04.455Z,964.51
2019-02-08T13:20:14.396Z,964.49
2019-02-08T13:21:24.324Z,964.45
2019-02-08T13:22:34.253Z,964.43
2019-02-08T13:23:43.929Z,964.47
2019-02-08T13:24:53.657Z,964.49
2019-02-08T13:26:03.590Z,964.6
2019-02-08T13:27:13.518Z,964.58
2019-02-08T13:28:23.443Z,964.58
2019-02-08T13:29:33.366Z,964.6
2019-02-08T13:30:43.391Z,964.64
2019-02-08T13:31:53.322Z,964.65
2019-02-08T13:33:03.245Z,964.63
2019-02-08T13:34:13.172Z,964.62
2019-02-08T13:35:23.102Z,964.5
2019-02-08T13:36:33.128Z,964.5
2019-02-08T13:37:42.853Z,964.48
2019-02-08T13:38:52.838Z,964.47
2019-02-08T13:40:02.780Z,964.48
2019-02-08T13:41:12.721Z,964.52
2019-02-08T13:42:22.702Z,964.58
2019-02-08T13:43:32.624Z,964.56
2019-02-08T13:44:42.553Z,964.62
2019-02-08T13:45:52.229Z,964.64
2019-02-08T13:47:02.151Z,964.59
2019-02-08T13:48:13.850Z,964.67
2019-02-08T13:49:23.771Z,964.66
2019-02-08T13:50:33.696Z,964.68
2019-02-08T13:51:43.648Z,964.68
2019-02-08T13:52:53.574Z,964.65
2019-02-08T13:54:03.602Z,964.65
2019-02-08T13:55:13.528Z,964.64
2019-02-08T13:56:23.448Z,964.59
2019-02-08T13:57:33.368Z,964.57
2019-02-08T13:58:43.300Z,964.56
2019-02-08T13:59:53.276Z,964.66
2019-02-08T14:01:03.201Z,964.7
2019-02-08T14:02:13.136Z,964.73
2019-02-08T14:03:23.065Z,964.77
2019-02-08T14:04:32.735Z,964.78
2019-02-08T14:05:42.701Z,964.76
2019-02-08T14:06:52.619Z,964.74
2019-02-08T14:08:02.538Z,964.81
2019-02-08T14:09:12.460Z,964.87
2019-02-08T14:10:22.381Z,964.81
2019-02-08T14:11:32.355Z,964.8
2019-02-08T14:12:42.274Z,964.76
2019-02-08T14:13:52.202Z,964.78
2019-02-08T14:15:03.070Z,964.77
2019-02-08T14:16:13.014Z,964.85
2019-02-08T14:17:23.034Z,964.81
2019-02-08T14:18:32.704Z,964.84
2019-02-08T14:19:42.628Z,964.82
2019-02-08T14:20:52.552Z,964.84
2019-02-08T14:22:02.477Z,964.83
2019-02-08T14:23:12.219Z,964.86
2019-02-08T14:24:22.142Z,964.87
2019-02-08T14:25:33.418Z,964.85
2019-02-08T14:26:43.342Z,964.78
2019-02-08T14:27:53.263Z,964.88
2019-02-08T14:29:03.197Z,964.83
2019-02-08T14:30:13.141Z,964.88
2019-02-08T14:31:24.454Z,964.86
2019-02-08T14:32:34.370Z,964.85
2019-02-08T14:33:44.033Z,964.87
2019-02-08T14:34:53.999Z,964.87
2019-02-08T14:36:03.918Z,964.89